sensor_id;sensor_type;location;lat;lon;timestamp;P1;durP1;ratioP1;P2;durP2;ratioP2
40595;SDS011;26304;48.794;9.820;2024-03-23T00:54:30;3.15;;;2.95;;
40595;SDS011;26304;48.794;9.820;2024-03-23T00:56:52;2.60;;;2.50;;
40595;SDS011;26304;48.794;9.820;2024-03-23T00:59:14;2.20;;;2.10;;
40595;SDS011;26304;48.794;9.820;2024-03-23T01:01:36;2.72;;;2.53;;
40595;SDS011;26304;48.794;9.820;2024-03-23T01:03:57;2.45;;;2.28;;
40595;SDS011;26304;48.794;9.820;2024-03-23T01:06:20;2.63;;;2.42;;
40595;SDS011;26304;48.794;9.820;2024-03-23T01:08:41;2.63;;;2.42;;
40595;SDS011;26304;48.794;9.820;2024-03-23T01:11:05;2.85;;;2.65;;
40595;SDS011;26304;48.794;9.820;2024-03-23T01:13:26;2.63;;;2.47;;
40595;SDS011;26304;48.794;9.820;2024-03-23T01:15:49;2.35;;;2.25;;
40595;SDS011;26304;48.794;9.820;2024-03-23T01:18:11;2.55;;;2.35;;
40595;SDS011;26304;48.794;9.820;2024-03-23T01:20:33;2.50;;;2.30;;
40595;SDS011;26304;48.794;9.820;2024-03-23T01:22:54;2.30;;;2.20;;
40595;SDS011;26304;48.794;9.820;2024-03-23T01:25:17;2.45;;;2.35;;
40595;SDS011;26304;48.794;9.820;2024-03-23T01:27:39;2.58;;;2.38;;
40595;SDS011;26304;48.794;9.820;2024-03-23T01:30:02;2.90;;;2.50;;
40595;SDS011;26304;48.794;9.820;2024-03-23T01:32:24;2.30;;;2.20;;
40595;SDS011;26304;48.794;9.820;2024-03-23T01:34:46;2.80;;;2.60;;
40595;SDS011;26304;48.794;9.820;2024-03-23T01:37:07;2.50;;;2.28;;
40595;SDS011;26304;48.794;9.820;2024-03-23T01:39:30;2.25;;;2.05;;
40595;SDS011;26304;48.794;9.820;2024-03-23T01:41:51;2.42;;;2.28;;
40595;SDS011;26304;48.794;9.820;2024-03-23T01:44:15;2.25;;;2.13;;
40595;SDS011;26304;48.794;9.820;2024-03-23T01:46:37;2.10;;;2.00;;
40595;SDS011;26304;48.794;9.820;2024-03-23T01:49:00;2.25;;;2.15;;
40595;SDS011;26304;48.794;9.820;2024-03-23T01:51:21;2.65;;;2.42;;
40595;SDS011;26304;48.794;9.820;2024-03-23T01:53:44;2.00;;;1.90;;
40595;SDS011;26304;48.794;9.820;2024-03-23T01:56:06;2.58;;;2.38;;
40595;SDS011;26304;48.794;9.820;2024-03-23T01:58:28;2.50;;;2.30;;
40595;SDS011;26304;48.794;9.820;2024-03-23T02:00:51;2.45;;;2.25;;
40595;SDS011;26304;48.794;9.820;2024-03-23T02:03:21;2.65;;;2.45;;
40595;SDS011;26304;48.794;9.820;2024-03-23T02:05:44;2.35;;;2.25;;
40595;SDS011;26304;48.794;9.820;2024-03-23T02:08:06;2.60;;;2.40;;
40595;SDS011;26304;48.794;9.820;2024-03-23T02:10:27;2.50;;;2.03;;
40595;SDS011;26304;48.794;9.820;2024-03-23T02:12:50;2.30;;;2.20;;
40595;SDS011;26304;48.794;9.820;2024-03-23T02:15:11;2.00;;;1.90;;
40595;SDS011;26304;48.794;9.820;2024-03-23T02:17:35;2.33;;;2.22;;
40595;SDS011;26304;48.794;9.820;2024-03-23T02:19:57;2.17;;;2.08;;
40595;SDS011;26304;48.794;9.820;2024-03-23T02:22:19;2.28;;;2.17;;
40595;SDS011;26304;48.794;9.820;2024-03-23T02:24:42;2.50;;;2.30;;
40595;SDS011;26304;48.794;9.820;2024-03-23T02:27:04;2.22;;;2.10;;
40595;SDS011;26304;48.794;9.820;2024-03-23T02:29:26;2.53;;;2.33;;
40595;SDS011;26304;48.794;9.820;2024-03-23T02:31:48;2.47;;;2.30;;
40595;SDS011;26304;48.794;9.820;2024-03-23T02:34:10;2.50;;;2.40;;
40595;SDS011;26304;48.794;9.820;2024-03-23T02:36:32;2.17;;;2.08;;
40595;SDS011;26304;48.794;9.820;2024-03-23T02:38:53;2.20;;;2.10;;
40595;SDS011;26304;48.794;9.820;2024-03-23T02:41:17;2.17;;;2.08;;
40595;SDS011;26304;48.794;9.820;2024-03-23T02:43:43;2.50;;;2.33;;
40595;SDS011;26304;48.794;9.820;2024-03-23T02:46:06;2.30;;;2.10;;
40595;SDS011;26304;48.794;9.820;2024-03-23T02:48:27;2.35;;;2.25;;
40595;SDS011;26304;48.794;9.820;2024-03-23T02:50:50;2.13;;;2.03;;
40595;SDS011;26304;48.794;9.820;2024-03-23T02:53:11;2.08;;;1.98;;
40595;SDS011;26304;48.794;9.820;2024-03-23T02:55:33;1.98;;;1.88;;
40595;SDS011;26304;48.794;9.820;2024-03-23T02:57:56;2.10;;;2.00;;
40595;SDS011;26304;48.794;9.820;2024-03-23T03:00:22;2.40;;;2.20;;
40595;SDS011;26304;48.794;9.820;2024-03-23T03:02:43;2.58;;;2.38;;
40595;SDS011;26304;48.794;9.820;2024-03-23T03:05:09;2.10;;;2.00;;
40595;SDS011;26304;48.794;9.820;2024-03-23T03:07:30;2.00;;;1.90;;
40595;SDS011;26304;48.794;9.820;2024-03-23T03:09:53;2.10;;;2.00;;
40595;SDS011;26304;48.794;9.820;2024-03-23T03:12:14;2.08;;;1.98;;
40595;SDS011;26304;48.794;9.820;2024-03-23T03:14:38;2.25;;;2.15;;
40595;SDS011;26304;48.794;9.820;2024-03-23T03:16:59;2.33;;;2.20;;
40595;SDS011;26304;48.794;9.820;2024-03-23T03:19:22;2.30;;;2.10;;
40595;SDS011;26304;48.794;9.820;2024-03-23T03:21:43;2.10;;;2.00;;
40595;SDS011;26304;48.794;9.820;2024-03-23T03:24:06;2.00;;;1.90;;
40595;SDS011;26304;48.794;9.820;2024-03-23T03:26:28;1.80;;;1.70;;
40595;SDS011;26304;48.794;9.820;2024-03-23T03:28:50;2.10;;;2.00;;
40595;SDS011;26304;48.794;9.820;2024-03-23T03:31:14;2.10;;;2.00;;
40595;SDS011;26304;48.794;9.820;2024-03-23T03:33:35;2.08;;;1.98;;
40595;SDS011;26304;48.794;9.820;2024-03-23T03:35:58;1.92;;;1.83;;
40595;SDS011;26304;48.794;9.820;2024-03-23T03:38:20;2.30;;;2.13;;
40595;SDS011;26304;48.794;9.820;2024-03-23T03:40:42;2.05;;;1.95;;
40595;SDS011;26304;48.794;9.820;2024-03-23T03:43:03;2.40;;;2.20;;
40595;SDS011;26304;48.794;9.820;2024-03-23T03:45:26;2.15;;;2.05;;
40595;SDS011;26304;48.794;9.820;2024-03-23T03:47:49;2.30;;;2.20;;
40595;SDS011;26304;48.794;9.820;2024-03-23T03:50:11;2.60;;;2.42;;
40595;SDS011;26304;48.794;9.820;2024-03-23T03:52:33;1.80;;;1.70;;
40595;SDS011;26304;48.794;9.820;2024-03-23T03:54:59;2.33;;;2.22;;
40595;SDS011;26304;48.794;9.820;2024-03-23T03:57:23;1.90;;;1.80;;
40595;SDS011;26304;48.794;9.820;2024-03-23T03:59:45;2.20;;;2.10;;
40595;SDS011;26304;48.794;9.820;2024-03-23T04:02:07;2.25;;;2.10;;
40595;SDS011;26304;48.794;9.820;2024-03-23T04:04:30;1.85;;;1.75;;
40595;SDS011;26304;48.794;9.820;2024-03-23T04:06:57;1.85;;;1.75;;
40595;SDS011;26304;48.794;9.820;2024-03-23T04:09:20;2.20;;;1.98;;
40595;SDS011;26304;48.794;9.820;2024-03-23T04:11:41;2.00;;;1.90;;
40595;SDS011;26304;48.794;9.820;2024-03-23T04:14:04;2.00;;;1.90;;
40595;SDS011;26304;48.794;9.820;2024-03-23T04:16:28;2.13;;;2.03;;
40595;SDS011;26304;48.794;9.820;2024-03-23T04:18:52;2.38;;;2.17;;
40595;SDS011;26304;48.794;9.820;2024-03-23T04:21:15;2.17;;;2.08;;
40595;SDS011;26304;48.794;9.820;2024-03-23T04:23:37;2.00;;;1.90;;
40595;SDS011;26304;48.794;9.820;2024-03-23T04:26:02;1.80;;;1.70;;
40595;SDS011;26304;48.794;9.820;2024-03-23T04:28:26;1.80;;;1.70;;
40595;SDS011;26304;48.794;9.820;2024-03-23T04:30:47;1.80;;;1.70;;
40595;SDS011;26304;48.794;9.820;2024-03-23T04:33:09;1.60;;;1.50;;
40595;SDS011;26304;48.794;9.820;2024-03-23T04:35:31;2.40;;;2.20;;
40595;SDS011;26304;48.794;9.820;2024-03-23T04:37:55;1.98;;;1.88;;
40595;SDS011;26304;48.794;9.820;2024-03-23T04:40:19;1.88;;;1.77;;
40595;SDS011;26304;48.794;9.820;2024-03-23T04:42:42;2.05;;;1.95;;
40595;SDS011;26304;48.794;9.820;2024-03-23T04:45:05;2.10;;;1.98;;
40595;SDS011;26304;48.794;9.820;2024-03-23T04:47:28;1.75;;;1.65;;
40595;SDS011;26304;48.794;9.820;2024-03-23T04:49:50;1.85;;;1.75;;
40595;SDS011;26304;48.794;9.820;2024-03-23T04:52:12;1.80;;;1.70;;
40595;SDS011;26304;48.794;9.820;2024-03-23T04:54:36;1.90;;;1.80;;
40595;SDS011;26304;48.794;9.820;2024-03-23T04:56:58;2.10;;;2.00;;
40595;SDS011;26304;48.794;9.820;2024-03-23T04:59:20;1.75;;;1.65;;
40595;SDS011;26304;48.794;9.820;2024-03-23T05:01:42;1.80;;;1.70;;
40595;SDS011;26304;48.794;9.820;2024-03-23T05:04:04;1.60;;;1.50;;
40595;SDS011;26304;48.794;9.820;2024-03-23T05:06:26;1.80;;;1.70;;
40595;SDS011;26304;48.794;9.820;2024-03-23T05:08:48;1.88;;;1.77;;
40595;SDS011;26304;48.794;9.820;2024-03-23T05:11:11;1.75;;;1.65;;
40595;SDS011;26304;48.794;9.820;2024-03-23T05:13:34;1.73;;;1.60;;
40595;SDS011;26304;48.794;9.820;2024-03-23T05:15:55;1.85;;;1.75;;
40595;SDS011;26304;48.794;9.820;2024-03-23T05:18:17;1.73;;;1.63;;
40595;SDS011;26304;48.794;9.820;2024-03-23T05:20:40;1.80;;;1.70;;
40595;SDS011;26304;48.794;9.820;2024-03-23T05:23:01;1.70;;;1.60;;
40595;SDS011;26304;48.794;9.820;2024-03-23T05:25:24;1.45;;;1.35;;
40595;SDS011;26304;48.794;9.820;2024-03-23T05:27:46;1.17;;;1.17;;
40595;SDS011;26304;48.794;9.820;2024-03-23T05:30:09;1.90;;;1.80;;
40595;SDS011;26304;48.794;9.820;2024-03-23T05:32:31;2.42;;;1.65;;
40595;SDS011;26304;48.794;9.820;2024-03-23T05:34:54;3.75;;;2.10;;
40595;SDS011;26304;48.794;9.820;2024-03-23T05:37:17;3.15;;;2.45;;
40595;SDS011;26304;48.794;9.820;2024-03-23T05:39:39;4.60;;;1.95;;
40595;SDS011;26304;48.794;9.820;2024-03-23T05:42:01;2.95;;;2.53;;
40595;SDS011;26304;48.794;9.820;2024-03-23T05:44:25;2.50;;;2.30;;
40595;SDS011;26304;48.794;9.820;2024-03-23T05:46:46;3.97;;;2.22;;
40595;SDS011;26304;48.794;9.820;2024-03-23T05:49:09;10.77;;;2.70;;
40595;SDS011;26304;48.794;9.820;2024-03-23T05:51:30;3.63;;;2.03;;
40595;SDS011;26304;48.794;9.820;2024-03-23T05:53:53;2.15;;;2.00;;
40595;SDS011;26304;48.794;9.820;2024-03-23T05:56:14;3.17;;;2.10;;
40595;SDS011;26304;48.794;9.820;2024-03-23T05:58:41;3.00;;;2.40;;
40595;SDS011;26304;48.794;9.820;2024-03-23T06:01:04;2.42;;;2.10;;
40595;SDS011;26304;48.794;9.820;2024-03-23T06:03:27;3.72;;;2.08;;
40595;SDS011;26304;48.794;9.820;2024-03-23T06:05:48;3.17;;;2.20;;
40595;SDS011;26304;48.794;9.820;2024-03-23T06:08:11;2.40;;;2.15;;
40595;SDS011;26304;48.794;9.820;2024-03-23T06:10:32;4.78;;;2.20;;
40595;SDS011;26304;48.794;9.820;2024-03-23T06:12:55;3.42;;;2.13;;
40595;SDS011;26304;48.794;9.820;2024-03-23T06:15:16;3.13;;;2.50;;
40595;SDS011;26304;48.794;9.820;2024-03-23T06:17:40;2.28;;;2.08;;
40595;SDS011;26304;48.794;9.820;2024-03-23T06:20:01;3.83;;;2.40;;
40595;SDS011;26304;48.794;9.820;2024-03-23T06:22:24;2.67;;;2.47;;
40595;SDS011;26304;48.794;9.820;2024-03-23T06:24:45;3.67;;;2.78;;
40595;SDS011;26304;48.794;9.820;2024-03-23T06:27:08;2.97;;;2.78;;
40595;SDS011;26304;48.794;9.820;2024-03-23T06:29:29;3.85;;;2.58;;
40595;SDS011;26304;48.794;9.820;2024-03-23T06:31:53;2.75;;;2.55;;
40595;SDS011;26304;48.794;9.820;2024-03-23T06:34:16;4.75;;;3.03;;
40595;SDS011;26304;48.794;9.820;2024-03-23T06:36:38;4.10;;;2.80;;
40595;SDS011;26304;48.794;9.820;2024-03-23T06:39:00;4.72;;;2.83;;
40595;SDS011;26304;48.794;9.820;2024-03-23T06:41:22;3.70;;;2.60;;
40595;SDS011;26304;48.794;9.820;2024-03-23T06:43:44;2.22;;;2.08;;
40595;SDS011;26304;48.794;9.820;2024-03-23T06:46:06;4.03;;;2.38;;
40595;SDS011;26304;48.794;9.820;2024-03-23T06:48:28;2.63;;;2.42;;
40595;SDS011;26304;48.794;9.820;2024-03-23T06:50:56;2.20;;;1.83;;
40595;SDS011;26304;48.794;9.820;2024-03-23T06:53:18;2.92;;;1.90;;
40595;SDS011;26304;48.794;9.820;2024-03-23T06:55:40;2.00;;;1.80;;
40595;SDS011;26304;48.794;9.820;2024-03-23T06:58:02;3.70;;;1.98;;
40595;SDS011;26304;48.794;9.820;2024-03-23T07:00:25;2.58;;;1.90;;
40595;SDS011;26304;48.794;9.820;2024-03-23T07:02:46;3.75;;;1.98;;
40595;SDS011;26304;48.794;9.820;2024-03-23T07:05:09;3.80;;;1.92;;
40595;SDS011;26304;48.794;9.820;2024-03-23T07:07:32;1.92;;;1.83;;
40595;SDS011;26304;48.794;9.820;2024-03-23T07:09:54;2.47;;;1.95;;
40595;SDS011;26304;48.794;9.820;2024-03-23T07:12:15;1.52;;;1.42;;
40595;SDS011;26304;48.794;9.820;2024-03-23T07:14:38;1.50;;;1.40;;
40595;SDS011;26304;48.794;9.820;2024-03-23T07:16:59;1.67;;;1.58;;
40595;SDS011;26304;48.794;9.820;2024-03-23T07:19:21;1.80;;;1.70;;
40595;SDS011;26304;48.794;9.820;2024-03-23T07:21:44;2.30;;;1.60;;
40595;SDS011;26304;48.794;9.820;2024-03-23T07:24:10;2.80;;;1.70;;
40595;SDS011;26304;48.794;9.820;2024-03-23T07:26:32;1.60;;;1.50;;
40595;SDS011;26304;48.794;9.820;2024-03-23T07:28:54;1.73;;;1.55;;
40595;SDS011;26304;48.794;9.820;2024-03-23T07:31:16;1.50;;;1.40;;
40595;SDS011;26304;48.794;9.820;2024-03-23T07:33:41;3.00;;;1.55;;
40595;SDS011;26304;48.794;9.820;2024-03-23T07:36:03;1.63;;;1.52;;
40595;SDS011;26304;48.794;9.820;2024-03-23T07:38:27;2.75;;;1.60;;
40595;SDS011;26304;48.794;9.820;2024-03-23T07:40:50;1.65;;;1.42;;
40595;SDS011;26304;48.794;9.820;2024-03-23T07:43:16;1.25;;;1.20;;
40595;SDS011;26304;48.794;9.820;2024-03-23T07:45:38;1.17;;;1.13;;
40595;SDS011;26304;48.794;9.820;2024-03-23T07:48:00;1.40;;;1.15;;
40595;SDS011;26304;48.794;9.820;2024-03-23T07:50:22;1.75;;;1.30;;
40595;SDS011;26304;48.794;9.820;2024-03-23T07:52:44;1.13;;;1.10;;
40595;SDS011;26304;48.794;9.820;2024-03-23T07:55:06;2.42;;;1.30;;
40595;SDS011;26304;48.794;9.820;2024-03-23T07:57:30;1.10;;;1.10;;
40595;SDS011;26304;48.794;9.820;2024-03-23T07:59:52;2.20;;;1.05;;
40595;SDS011;26304;48.794;9.820;2024-03-23T08:02:14;1.20;;;1.10;;
40595;SDS011;26304;48.794;9.820;2024-03-23T08:04:36;1.80;;;1.30;;
40595;SDS011;26304;48.794;9.820;2024-03-23T08:06:58;1.23;;;1.13;;
40595;SDS011;26304;48.794;9.820;2024-03-23T08:09:19;1.52;;;0.93;;
40595;SDS011;26304;48.794;9.820;2024-03-23T08:11:42;0.85;;;0.85;;
40595;SDS011;26304;48.794;9.820;2024-03-23T08:14:07;1.42;;;0.82;;
40595;SDS011;26304;48.794;9.820;2024-03-23T08:16:30;1.23;;;0.93;;
40595;SDS011;26304;48.794;9.820;2024-03-23T08:18:52;0.85;;;0.82;;
40595;SDS011;26304;48.794;9.820;2024-03-23T08:21:16;0.88;;;0.88;;
40595;SDS011;26304;48.794;9.820;2024-03-23T08:23:39;0.77;;;0.77;;
40595;SDS011;26304;48.794;9.820;2024-03-23T08:26:02;1.40;;;0.90;;
40595;SDS011;26304;48.794;9.820;2024-03-23T08:28:25;0.70;;;0.70;;
40595;SDS011;26304;48.794;9.820;2024-03-23T08:30:49;1.40;;;1.02;;
40595;SDS011;26304;48.794;9.820;2024-03-23T08:33:10;1.30;;;0.90;;
40595;SDS011;26304;48.794;9.820;2024-03-23T08:35:33;0.77;;;0.70;;
40595;SDS011;26304;48.794;9.820;2024-03-23T08:37:55;0.80;;;0.80;;
40595;SDS011;26304;48.794;9.820;2024-03-23T08:40:18;1.83;;;0.68;;
40595;SDS011;26304;48.794;9.820;2024-03-23T08:42:39;0.75;;;0.50;;
40595;SDS011;26304;48.794;9.820;2024-03-23T08:45:01;1.08;;;0.73;;
40595;SDS011;26304;48.794;9.820;2024-03-23T08:47:25;0.65;;;0.60;;
40595;SDS011;26304;48.794;9.820;2024-03-23T08:49:47;0.70;;;0.55;;
40595;SDS011;26304;48.794;9.820;2024-03-23T08:52:08;0.60;;;0.60;;
40595;SDS011;26304;48.794;9.820;2024-03-23T08:54:31;1.15;;;0.77;;
40595;SDS011;26304;48.794;9.820;2024-03-23T08:56:52;0.98;;;0.70;;
40595;SDS011;26304;48.794;9.820;2024-03-23T08:59:15;0.82;;;0.73;;
40595;SDS011;26304;48.794;9.820;2024-03-23T09:01:36;0.50;;;0.50;;
40595;SDS011;26304;48.794;9.820;2024-03-23T09:04:00;0.50;;;0.50;;
40595;SDS011;26304;48.794;9.820;2024-03-23T09:06:21;0.77;;;0.77;;
40595;SDS011;26304;48.794;9.820;2024-03-23T09:08:44;0.80;;;0.55;;
40595;SDS011;26304;48.794;9.820;2024-03-23T09:11:05;0.52;;;0.52;;
40595;SDS011;26304;48.794;9.820;2024-03-23T09:13:29;0.50;;;0.50;;
40595;SDS011;26304;48.794;9.820;2024-03-23T09:15:50;0.50;;;0.50;;
40595;SDS011;26304;48.794;9.820;2024-03-23T09:18:17;0.90;;;0.60;;
40595;SDS011;26304;48.794;9.820;2024-03-23T09:20:41;0.52;;;0.50;;
40595;SDS011;26304;48.794;9.820;2024-03-23T09:23:02;1.23;;;0.40;;
40595;SDS011;26304;48.794;9.820;2024-03-23T09:25:25;0.40;;;0.40;;
40595;SDS011;26304;48.794;9.820;2024-03-23T09:27:46;0.30;;;0.30;;
40595;SDS011;26304;48.794;9.820;2024-03-23T09:30:09;1.38;;;0.50;;
40595;SDS011;26304;48.794;9.820;2024-03-23T09:32:31;0.68;;;0.43;;
40595;SDS011;26304;48.794;9.820;2024-03-23T09:34:54;0.30;;;0.30;;
40595;SDS011;26304;48.794;9.820;2024-03-23T09:37:17;1.50;;;0.40;;
40595;SDS011;26304;48.794;9.820;2024-03-23T09:39:39;1.25;;;0.50;;
40595;SDS011;26304;48.794;9.820;2024-03-23T09:42:01;0.40;;;0.40;;
40595;SDS011;26304;48.794;9.820;2024-03-23T09:44:24;0.98;;;0.50;;
40595;SDS011;26304;48.794;9.820;2024-03-23T09:46:47;0.50;;;0.50;;
40595;SDS011;26304;48.794;9.820;2024-03-23T09:49:09;0.40;;;0.40;;
40595;SDS011;26304;48.794;9.820;2024-03-23T09:51:31;0.57;;;0.57;;
40595;SDS011;26304;48.794;9.820;2024-03-23T09:53:55;0.65;;;0.60;;
40595;SDS011;26304;48.794;9.820;2024-03-23T09:56:16;0.60;;;0.60;;
40595;SDS011;26304;48.794;9.820;2024-03-23T09:58:39;0.40;;;0.40;;
40595;SDS011;26304;48.794;9.820;2024-03-23T10:01:01;0.43;;;0.43;;
40595;SDS011;26304;48.794;9.820;2024-03-23T10:03:24;1.52;;;0.70;;
40595;SDS011;26304;48.794;9.820;2024-03-23T10:05:45;2.17;;;0.80;;
40595;SDS011;26304;48.794;9.820;2024-03-23T10:10:51;1.20;;;0.75;;
40595;SDS011;26304;48.794;9.820;2024-03-23T10:13:23;1.33;;;0.85;;
40595;SDS011;26304;48.794;9.820;2024-03-23T10:15:45;0.77;;;0.60;;
40595;SDS011;26304;48.794;9.820;2024-03-23T10:18:17;1.90;;;0.80;;
40595;SDS011;26304;48.794;9.820;2024-03-23T10:20:39;1.38;;;1.10;;
40595;SDS011;26304;48.794;9.820;2024-03-23T10:23:01;0.88;;;0.80;;
40595;SDS011;26304;48.794;9.820;2024-03-23T10:25:23;1.65;;;0.85;;
40595;SDS011;26304;48.794;9.820;2024-03-23T10:27:47;0.90;;;0.55;;
40595;SDS011;26304;48.794;9.820;2024-03-23T10:30:19;1.33;;;0.77;;
40595;SDS011;26304;48.794;9.820;2024-03-23T10:32:48;1.38;;;0.70;;
40595;SDS011;26304;48.794;9.820;2024-03-23T10:35:14;2.00;;;0.73;;
40595;SDS011;26304;48.794;9.820;2024-03-23T10:37:39;1.25;;;0.80;;
40595;SDS011;26304;48.794;9.820;2024-03-23T10:40:01;2.25;;;1.00;;
40595;SDS011;26304;48.794;9.820;2024-03-23T10:42:27;3.47;;;1.15;;
40595;SDS011;26304;48.794;9.820;2024-03-23T10:44:50;2.50;;;0.93;;
40595;SDS011;26304;48.794;9.820;2024-03-23T10:47:14;1.25;;;0.80;;
40595;SDS011;26304;48.794;9.820;2024-03-23T10:49:37;2.88;;;1.23;;
40595;SDS011;26304;48.794;9.820;2024-03-23T10:51:58;1.55;;;0.98;;
40595;SDS011;26304;48.794;9.820;2024-03-23T10:54:21;2.00;;;1.20;;
40595;SDS011;26304;48.794;9.820;2024-03-23T10:56:44;1.92;;;1.00;;
40595;SDS011;26304;48.794;9.820;2024-03-23T10:59:08;2.50;;;1.20;;
40595;SDS011;26304;48.794;9.820;2024-03-23T11:01:32;1.30;;;1.20;;
40595;SDS011;26304;48.794;9.820;2024-03-23T11:03:54;3.08;;;1.10;;
40595;SDS011;26304;48.794;9.820;2024-03-23T11:08:56;2.72;;;1.10;;
40595;SDS011;26304;48.794;9.820;2024-03-23T11:11:18;1.42;;;0.90;;
40595;SDS011;26304;48.794;9.820;2024-03-23T11:13:41;3.13;;;1.10;;
40595;SDS011;26304;48.794;9.820;2024-03-23T11:16:12;1.75;;;1.15;;
40595;SDS011;26304;48.794;9.820;2024-03-23T11:18:36;1.67;;;0.90;;
40595;SDS011;26304;48.794;9.820;2024-03-23T11:20:58;4.32;;;1.00;;
40595;SDS011;26304;48.794;9.820;2024-03-23T11:23:26;2.58;;;1.10;;
40595;SDS011;26304;48.794;9.820;2024-03-23T11:25:48;3.60;;;2.00;;
40595;SDS011;26304;48.794;9.820;2024-03-23T11:28:11;3.03;;;1.67;;
40595;SDS011;26304;48.794;9.820;2024-03-23T11:30:32;2.40;;;1.70;;
40595;SDS011;26304;48.794;9.820;2024-03-23T11:32:57;3.25;;;2.15;;
40595;SDS011;26304;48.794;9.820;2024-03-23T11:35:26;4.70;;;2.20;;
40595;SDS011;26304;48.794;9.820;2024-03-23T11:38:00;3.30;;;1.90;;
40595;SDS011;26304;48.794;9.820;2024-03-23T11:40:25;5.00;;;3.40;;
40595;SDS011;26304;48.794;9.820;2024-03-23T11:42:54;4.45;;;4.05;;
40595;SDS011;26304;48.794;9.820;2024-03-23T11:45:17;4.97;;;3.17;;
40595;SDS011;26304;48.794;9.820;2024-03-23T11:47:40;3.63;;;2.63;;
40595;SDS011;26304;48.794;9.820;2024-03-23T11:50:02;5.32;;;2.45;;
40595;SDS011;26304;48.794;9.820;2024-03-23T11:52:26;3.65;;;2.58;;
40595;SDS011;26304;48.794;9.820;2024-03-23T11:54:47;4.20;;;2.33;;
40595;SDS011;26304;48.794;9.820;2024-03-23T11:57:09;2.38;;;2.17;;
40595;SDS011;26304;48.794;9.820;2024-03-23T11:59:32;2.95;;;1.98;;
40595;SDS011;26304;48.794;9.820;2024-03-23T12:01:55;3.40;;;2.53;;
40595;SDS011;26304;48.794;9.820;2024-03-23T12:04:24;4.97;;;2.38;;
40595;SDS011;26304;48.794;9.820;2024-03-23T12:06:47;3.17;;;1.83;;
40595;SDS011;26304;48.794;9.820;2024-03-23T12:09:10;4.75;;;1.98;;
40595;SDS011;26304;48.794;9.820;2024-03-23T12:11:32;2.55;;;2.20;;
40595;SDS011;26304;48.794;9.820;2024-03-23T12:13:54;3.67;;;2.35;;
40595;SDS011;26304;48.794;9.820;2024-03-23T12:16:24;2.42;;;1.90;;
40595;SDS011;26304;48.794;9.820;2024-03-23T12:18:48;2.30;;;1.80;;
40595;SDS011;26304;48.794;9.820;2024-03-23T12:21:12;3.80;;;1.90;;
40595;SDS011;26304;48.794;9.820;2024-03-23T12:23:34;1.77;;;1.45;;
40595;SDS011;26304;48.794;9.820;2024-03-23T12:25:58;1.73;;;1.48;;
40595;SDS011;26304;48.794;9.820;2024-03-23T12:28:20;2.45;;;1.80;;
40595;SDS011;26304;48.794;9.820;2024-03-23T12:30:42;2.70;;;1.33;;
40595;SDS011;26304;48.794;9.820;2024-03-23T12:33:03;2.05;;;1.60;;
40595;SDS011;26304;48.794;9.820;2024-03-23T12:35:26;1.70;;;1.58;;
40595;SDS011;26304;48.794;9.820;2024-03-23T12:37:48;2.08;;;1.48;;
40595;SDS011;26304;48.794;9.820;2024-03-23T12:40:10;2.10;;;1.45;;
40595;SDS011;26304;48.794;9.820;2024-03-23T12:42:33;1.65;;;1.20;;
40595;SDS011;26304;48.794;9.820;2024-03-23T12:44:56;2.65;;;1.52;;
40595;SDS011;26304;48.794;9.820;2024-03-23T12:47:17;2.72;;;1.63;;
40595;SDS011;26304;48.794;9.820;2024-03-23T12:49:40;1.88;;;1.23;;
40595;SDS011;26304;48.794;9.820;2024-03-23T12:52:01;2.10;;;1.60;;
40595;SDS011;26304;48.794;9.820;2024-03-23T12:54:25;1.77;;;1.48;;
40595;SDS011;26304;48.794;9.820;2024-03-23T12:56:47;2.30;;;1.38;;
40595;SDS011;26304;48.794;9.820;2024-03-23T12:59:10;1.70;;;1.27;;
40595;SDS011;26304;48.794;9.820;2024-03-23T13:01:32;2.15;;;1.42;;
40595;SDS011;26304;48.794;9.820;2024-03-23T13:03:54;2.67;;;1.30;;
40595;SDS011;26304;48.794;9.820;2024-03-23T13:06:16;2.28;;;1.33;;
40595;SDS011;26304;48.794;9.820;2024-03-23T13:08:39;1.80;;;1.13;;
40595;SDS011;26304;48.794;9.820;2024-03-23T13:11:01;1.95;;;1.10;;
40595;SDS011;26304;48.794;9.820;2024-03-23T13:13:24;1.50;;;1.20;;
40595;SDS011;26304;48.794;9.820;2024-03-23T13:15:50;2.60;;;1.50;;
40595;SDS011;26304;48.794;9.820;2024-03-23T13:18:13;1.20;;;1.10;;
40595;SDS011;26304;48.794;9.820;2024-03-23T13:20:35;1.33;;;1.23;;
40595;SDS011;26304;48.794;9.820;2024-03-23T13:22:58;2.13;;;1.30;;
40595;SDS011;26304;48.794;9.820;2024-03-23T13:25:19;1.33;;;1.20;;
40595;SDS011;26304;48.794;9.820;2024-03-23T13:27:42;1.42;;;1.00;;
40595;SDS011;26304;48.794;9.820;2024-03-23T13:30:05;1.48;;;1.15;;
40595;SDS011;26304;48.794;9.820;2024-03-23T13:32:29;2.00;;;1.33;;
40595;SDS011;26304;48.794;9.820;2024-03-23T13:34:51;1.95;;;1.10;;
40595;SDS011;26304;48.794;9.820;2024-03-23T13:37:13;1.45;;;1.17;;
40595;SDS011;26304;48.794;9.820;2024-03-23T13:39:34;2.95;;;1.20;;
40595;SDS011;26304;48.794;9.820;2024-03-23T13:41:57;1.70;;;1.10;;
40595;SDS011;26304;48.794;9.820;2024-03-23T13:44:18;1.17;;;1.00;;
40595;SDS011;26304;48.794;9.820;2024-03-23T13:46:41;1.50;;;1.00;;
40595;SDS011;26304;48.794;9.820;2024-03-23T13:49:05;1.33;;;1.00;;
40595;SDS011;26304;48.794;9.820;2024-03-23T13:51:28;1.65;;;1.10;;
40595;SDS011;26304;48.794;9.820;2024-03-23T13:53:50;1.27;;;1.17;;
40595;SDS011;26304;48.794;9.820;2024-03-23T13:56:12;1.05;;;0.95;;
40595;SDS011;26304;48.794;9.820;2024-03-23T13:58:34;2.42;;;1.25;;
40595;SDS011;26304;48.794;9.820;2024-03-23T14:00:56;1.52;;;1.20;;
40595;SDS011;26304;48.794;9.820;2024-03-23T14:03:18;1.20;;;1.00;;
40595;SDS011;26304;48.794;9.820;2024-03-23T14:05:42;1.58;;;1.20;;
40595;SDS011;26304;48.794;9.820;2024-03-23T14:08:04;2.65;;;1.30;;
40595;SDS011;26304;48.794;9.820;2024-03-23T14:10:27;1.20;;;1.10;;
40595;SDS011;26304;48.794;9.820;2024-03-23T14:12:48;2.22;;;0.93;;
40595;SDS011;26304;48.794;9.820;2024-03-23T14:15:11;1.30;;;1.15;;
40595;SDS011;26304;48.794;9.820;2024-03-23T14:17:32;1.15;;;1.00;;
40595;SDS011;26304;48.794;9.820;2024-03-23T14:19:55;1.92;;;1.27;;
40595;SDS011;26304;48.794;9.820;2024-03-23T14:22:18;1.10;;;1.00;;
40595;SDS011;26304;48.794;9.820;2024-03-23T14:24:43;1.77;;;1.17;;
40595;SDS011;26304;48.794;9.820;2024-03-23T14:27:04;1.10;;;1.00;;
40595;SDS011;26304;48.794;9.820;2024-03-23T14:29:27;1.52;;;0.90;;
40595;SDS011;26304;48.794;9.820;2024-03-23T14:31:49;1.73;;;1.38;;
40595;SDS011;26304;48.794;9.820;2024-03-23T14:34:11;2.83;;;1.40;;
40595;SDS011;26304;48.794;9.820;2024-03-23T14:36:33;3.33;;;1.10;;
40595;SDS011;26304;48.794;9.820;2024-03-23T14:38:56;2.45;;;1.20;;
40595;SDS011;26304;48.794;9.820;2024-03-23T14:41:18;2.20;;;0.90;;
40595;SDS011;26304;48.794;9.820;2024-03-23T14:43:40;4.18;;;1.33;;
40595;SDS011;26304;48.794;9.820;2024-03-23T14:46:08;1.08;;;0.95;;
40595;SDS011;26304;48.794;9.820;2024-03-23T14:48:31;1.55;;;1.08;;
40595;SDS011;26304;48.794;9.820;2024-03-23T14:50:55;1.77;;;1.27;;
40595;SDS011;26304;48.794;9.820;2024-03-23T14:53:18;1.75;;;1.20;;
40595;SDS011;26304;48.794;9.820;2024-03-23T14:55:40;1.65;;;1.30;;
40595;SDS011;26304;48.794;9.820;2024-03-23T14:58:08;2.05;;;1.30;;
40595;SDS011;26304;48.794;9.820;2024-03-23T15:00:29;3.78;;;0.90;;
40595;SDS011;26304;48.794;9.820;2024-03-23T15:02:52;1.15;;;1.00;;
40595;SDS011;26304;48.794;9.820;2024-03-23T15:05:13;2.47;;;0.90;;
40595;SDS011;26304;48.794;9.820;2024-03-23T15:07:36;1.38;;;0.70;;
40595;SDS011;26304;48.794;9.820;2024-03-23T15:09:59;1.92;;;1.10;;
40595;SDS011;26304;48.794;9.820;2024-03-23T15:12:22;1.52;;;0.80;;
40595;SDS011;26304;48.794;9.820;2024-03-23T15:14:44;1.20;;;0.65;;
40595;SDS011;26304;48.794;9.820;2024-03-23T15:17:07;0.75;;;0.60;;
40595;SDS011;26304;48.794;9.820;2024-03-23T15:19:29;1.45;;;0.70;;